sensor_id;sensor_type;location;lat;lon;timestamp;pressure;altitude;pressure_sealevel;temperature;humidity
54459;BME280;40368;49.350;8.152;2023-01-19T00:00:39;991.2;;;8.24;45.95
54459;BME280;40368;49.350;8.152;2023-01-19T00:01:39;991.1;;;8.21;45.5
54459;BME280;40368;49.350;8.152;2023-01-19T00:02:39;991.2;;;8.18;45.33
54459;BME280;40368;49.350;8.152;2023-01-19T00:04:39;991.2;;;8.17;45.87
54459;BME280;40368;49.350;8.152;2023-01-19T00:05:39;991.2;;;8.16;45.67
54459;BME280;40368;49.350;8.152;2023-01-19T00:06:39;991.2;;;8.12;45.65
54459;BME280;40368;49.350;8.152;2023-01-19T00:07:39;991.3;;;8.07;46.07
54459;BME280;40368;49.350;8.152;2023-01-19T00:08:39;991.3;;;8.05;46.26
54459;BME280;40368;49.350;8.152;2023-01-19T00:10:48;991.2;;;8.06;45.39
54459;BME280;40368;49.350;8.152;2023-01-19T00:11:46;991.3;;;8.06;45.87
54459;BME280;40368;49.350;8.152;2023-01-19T00:12:45;991.3;;;8.05;46.39
54459;BME280;40368;49.350;8.152;2023-01-19T00:14:39;991.3;;;7.99;46.26
54459;BME280;40368;49.350;8.152;2023-01-19T00:17:39;991.2;;;8.04;45.95
54459;BME280;40368;49.350;8.152;2023-01-19T00:18:39;991.2;;;8.06;45.71
54459;BME280;40368;49.350;8.152;2023-01-19T00:22:45;991.3;;;8.02;46.17
54459;BME280;40368;49.350;8.152;2023-01-19T00:24:39;991.3;;;8.07;46.04
54459;BME280;40368;49.350;8.152;2023-01-19T00:25:39;991.3;;;8.1;45.99
54459;BME280;40368;49.350;8.152;2023-01-19T00:26:39;991.3;;;8.13;46.26
54459;BME280;40368;49.350;8.152;2023-01-19T00:27:39;991.3;;;8.14;45.88
54459;BME280;40368;49.350;8.152;2023-01-19T00:28:39;991.3;;;8.13;46.26
54459;BME280;40368;49.350;8.152;2023-01-19T00:30:45;991.3;;;8.1;45.63
54459;BME280;40368;49.350;8.152;2023-01-19T00:31:45;991.3;;;8.06;45.44
54459;BME280;40368;49.350;8.152;2023-01-19T00:33:39;991.3;;;7.95;45.29
54459;BME280;40368;49.350;8.152;2023-01-19T00:34:39;991.3;;;7.91;45.89
54459;BME280;40368;49.350;8.152;2023-01-19T00:35:39;991.3;;;7.93;45.77
54459;BME280;40368;49.350;8.152;2023-01-19T00:36:39;991.4;;;7.95;46.08
54459;BME280;40368;49.350;8.152;2023-01-19T00:37:39;991.4;;;7.99;45.98
54459;BME280;40368;49.350;8.152;2023-01-19T00:38:39;991.4;;;7.99;45.88
54459;BME280;40368;49.350;8.152;2023-01-19T00:39:39;991.5;;;7.96;46.01
54459;BME280;40368;49.350;8.152;2023-01-19T00:40:39;991.5;;;7.93;45.48
54459;BME280;40368;49.350;8.152;2023-01-19T00:41:39;991.4;;;7.91;45.79
54459;BME280;40368;49.350;8.152;2023-01-19T00:42:39;991.4;;;7.92;45.9
54459;BME280;40368;49.350;8.152;2023-01-19T00:43:39;991.5;;;7.92;46.49
54459;BME280;40368;49.350;8.152;2023-01-19T00:44:39;991.5;;;7.94;46.23
54459;BME280;40368;49.350;8.152;2023-01-19T00:45:39;991.5;;;7.96;46.32
54459;BME280;40368;49.350;8.152;2023-01-19T00:46:39;991.5;;;7.94;46.04
54459;BME280;40368;49.350;8.152;2023-01-19T00:47:39;991.5;;;7.93;46.54
54459;BME280;40368;49.350;8.152;2023-01-19T00:48:39;991.5;;;7.93;46.31
54459;BME280;40368;49.350;8.152;2023-01-19T00:49:39;991.5;;;7.94;46.53
54459;BME280;40368;49.350;8.152;2023-01-19T00:50:40;991.5;;;7.98;46.02
54459;BME280;40368;49.350;8.152;2023-01-19T00:51:39;991.5;;;7.93;46.42
54459;BME280;40368;49.350;8.152;2023-01-19T00:52:39;991.5;;;7.94;46.3
54459;BME280;40368;49.350;8.152;2023-01-19T00:53:39;991.5;;;7.96;45.92
54459;BME280;40368;49.350;8.152;2023-01-19T00:54:39;991.5;;;7.91;45.68
54459;BME280;40368;49.350;8.152;2023-01-19T00:56:39;991.5;;;7.92;46.62
54459;BME280;40368;49.350;8.152;2023-01-19T00:57:40;991.5;;;7.96;45.51
54459;BME280;40368;49.350;8.152;2023-01-19T00:58:39;991.5;;;7.93;45.43
54459;BME280;40368;49.350;8.152;2023-01-19T00:59:39;991.5;;;7.92;46.33
54459;BME280;40368;49.350;8.152;2023-01-19T01:00:39;991.5;;;7.91;45.34
54459;BME280;40368;49.350;8.152;2023-01-19T01:01:39;991.5;;;7.92;46.29
54459;BME280;40368;49.350;8.152;2023-01-19T01:02:39;991.6;;;7.95;45.91
54459;BME280;40368;49.350;8.152;2023-01-19T01:03:39;991.5;;;7.89;44.65
54459;BME280;40368;49.350;8.152;2023-01-19T01:04:39;991.6;;;7.77;45.36
54459;BME280;40368;49.350;8.152;2023-01-19T01:05:39;991.7;;;7.79;46.8
54459;BME280;40368;49.350;8.152;2023-01-19T01:06:39;991.6;;;7.81;46.15
54459;BME280;40368;49.350;8.152;2023-01-19T01:07:39;991.6;;;7.83;46.63
54459;BME280;40368;49.350;8.152;2023-01-19T01:08:39;991.6;;;7.92;46.74
54459;BME280;40368;49.350;8.152;2023-01-19T01:09:39;991.6;;;7.92;45.08
54459;BME280;40368;49.350;8.152;2023-01-19T01:11:39;991.6;;;7.92;46.49
54459;BME280;40368;49.350;8.152;2023-01-19T01:12:39;991.5;;;7.96;45.62
54459;BME280;40368;49.350;8.152;2023-01-19T01:13:39;991.6;;;7.95;44.9
54459;BME280;40368;49.350;8.152;2023-01-19T01:14:39;991.6;;;7.95;47.04
54459;BME280;40368;49.350;8.152;2023-01-19T01:15:39;991.5;;;8.02;45.28
54459;BME280;40368;49.350;8.152;2023-01-19T01:16:39;991.6;;;7.99;45.5
54459;BME280;40368;49.350;8.152;2023-01-19T01:17:39;991.5;;;7.99;46.01
54459;BME280;40368;49.350;8.152;2023-01-19T01:18:39;991.5;;;8;45.72
54459;BME280;40368;49.350;8.152;2023-01-19T01:19:39;991.6;;;7.97;46.31
54459;BME280;40368;49.350;8.152;2023-01-19T01:20:39;991.6;;;7.97;46.14
54459;BME280;40368;49.350;8.152;2023-01-19T01:21:39;991.5;;;7.97;46.09
54459;BME280;40368;49.350;8.152;2023-01-19T01:23:39;991.5;;;7.99;45.61
54459;BME280;40368;49.350;8.152;2023-01-19T01:24:39;991.6;;;7.94;46.3
54459;BME280;40368;49.350;8.152;2023-01-19T01:25:39;991.6;;;7.91;46.83
54459;BME280;40368;49.350;8.152;2023-01-19T01:26:39;991.6;;;7.91;46.88
54459;BME280;40368;49.350;8.152;2023-01-19T01:27:39;991.6;;;7.92;46.79
54459;BME280;40368;49.350;8.152;2023-01-19T01:28:39;991.6;;;7.92;46.57
54459;BME280;40368;49.350;8.152;2023-01-19T01:29:39;991.6;;;7.91;46.67
54459;BME280;40368;49.350;8.152;2023-01-19T01:30:39;991.6;;;7.92;46.59
54459;BME280;40368;49.350;8.152;2023-01-19T01:31:39;991.6;;;7.9;46.44
54459;BME280;40368;49.350;8.152;2023-01-19T01:32:39;991.6;;;7.89;46.41
54459;BME280;40368;49.350;8.152;2023-01-19T01:33:39;991.6;;;7.89;46.83
54459;BME280;40368;49.350;8.152;2023-01-19T01:34:39;991.6;;;7.91;46.85
54459;BME280;40368;49.350;8.152;2023-01-19T01:35:39;991.6;;;7.89;46.56
54459;BME280;40368;49.350;8.152;2023-01-19T01:36:39;991.6;;;7.88;46.98
54459;BME280;40368;49.350;8.152;2023-01-19T01:37:39;991.5;;;7.9;47.66
54459;BME280;40368;49.350;8.152;2023-01-19T01:38:39;991.5;;;7.95;46.07
54459;BME280;40368;49.350;8.152;2023-01-19T01:39:39;991.6;;;7.93;45.66
54459;BME280;40368;49.350;8.152;2023-01-19T01:40:39;991.6;;;7.88;46.15
54459;BME280;40368;49.350;8.152;2023-01-19T01:41:39;991.6;;;7.9;46.89
54459;BME280;40368;49.350;8.152;2023-01-19T01:42:39;991.6;;;7.93;46.75
54459;BME280;40368;49.350;8.152;2023-01-19T01:43:41;991.6;;;7.96;46.83
54459;BME280;40368;49.350;8.152;2023-01-19T01:45:39;991.6;;;7.98;45.72
54459;BME280;40368;49.350;8.152;2023-01-19T01:47:42;991.6;;;7.93;46.74
54459;BME280;40368;49.350;8.152;2023-01-19T01:48:39;991.6;;;7.91;45.76
54459;BME280;40368;49.350;8.152;2023-01-19T01:49:39;991.6;;;7.89;45.3
54459;BME280;40368;49.350;8.152;2023-01-19T01:50:40;991.6;;;7.86;46.43
54459;BME280;40368;49.350;8.152;2023-01-19T01:51:39;991.6;;;7.87;45.7
54459;BME280;40368;49.350;8.152;2023-01-19T01:52:39;991.6;;;7.84;45.85
54459;BME280;40368;49.350;8.152;2023-01-19T01:53:39;991.6;;;7.86;46.98
54459;BME280;40368;49.350;8.152;2023-01-19T01:54:39;991.7;;;7.88;46.51
54459;BME280;40368;49.350;8.152;2023-01-19T01:55:40;991.6;;;7.87;46.25
54459;BME280;40368;49.350;8.152;2023-01-19T01:56:40;991.7;;;7.87;46.87
54459;BME280;40368;49.350;8.152;2023-01-19T01:57:41;991.6;;;7.91;46.13
54459;BME280;40368;49.350;8.152;2023-01-19T01:58:39;991.6;;;7.93;46.83
54459;BME280;40368;49.350;8.152;2023-01-19T01:59:40;991.6;;;7.93;45.85
54459;BME280;40368;49.350;8.152;2023-01-19T02:00:39;991.6;;;7.9;46.63
54459;BME280;40368;49.350;8.152;2023-01-19T02:01:39;991.6;;;7.92;46.63
54459;BME280;40368;49.350;8.152;2023-01-19T02:02:39;991.7;;;7.91;46.23
54459;BME280;40368;49.350;8.152;2023-01-19T02:03:39;991.6;;;7.88;46.71
54459;BME280;40368;49.350;8.152;2023-01-19T02:04:39;991.7;;;7.89;46.3
54459;BME280;40368;49.350;8.152;2023-01-19T02:05:39;991.7;;;7.89;46.72
54459;BME280;40368;49.350;8.152;2023-01-19T02:06:39;991.8;;;7.87;46.66
54459;BME280;40368;49.350;8.152;2023-01-19T02:07:41;991.8;;;7.84;46.5
54459;BME280;40368;49.350;8.152;2023-01-19T02:08:41;991.7;;;7.81;46.77
54459;BME280;40368;49.350;8.152;2023-01-19T02:09:39;991.6;;;7.82;46.99
54459;BME280;40368;49.350;8.152;2023-01-19T02:11:39;991.7;;;7.81;46.64
54459;BME280;40368;49.350;8.152;2023-01-19T02:12:39;991.7;;;7.84;47.05
54459;BME280;40368;49.350;8.152;2023-01-19T02:13:39;991.7;;;7.83;46.35
54459;BME280;40368;49.350;8.152;2023-01-19T02:14:39;991.7;;;7.81;47.02
54459;BME280;40368;49.350;8.152;2023-01-19T02:15:39;991.7;;;7.82;47.18
54459;BME280;40368;49.350;8.152;2023-01-19T02:16:39;991.7;;;7.84;47.04
54459;BME280;40368;49.350;8.152;2023-01-19T02:17:39;991.6;;;7.83;46.61
54459;BME280;40368;49.350;8.152;2023-01-19T02:18:39;991.6;;;7.84;46.84
54459;BME280;40368;49.350;8.152;2023-01-19T02:19:40;991.6;;;7.87;46.21
54459;BME280;40368;49.350;8.152;2023-01-19T02:21:40;991.6;;;7.87;46.78
54459;BME280;40368;49.350;8.152;2023-01-19T02:22:41;991.6;;;7.88;46.31
54459;BME280;40368;49.350;8.152;2023-01-19T02:23:39;991.6;;;7.87;46.89
54459;BME280;40368;49.350;8.152;2023-01-19T02:24:39;991.6;;;7.86;46.32
54459;BME280;40368;49.350;8.152;2023-01-19T02:25:39;991.5;;;7.84;47.24
54459;BME280;40368;49.350;8.152;2023-01-19T02:26:39;991.5;;;7.85;45.61
54459;BME280;40368;49.350;8.152;2023-01-19T02:27:39;991.6;;;7.84;46.86
54459;BME280;40368;49.350;8.152;2023-01-19T02:28:40;991.6;;;7.88;47.27
54459;BME280;40368;49.350;8.152;2023-01-19T02:29:39;991.6;;;7.96;46.94
54459;BME280;40368;49.350;8.152;2023-01-19T02:30:39;991.6;;;8.02;47.15
54459;BME280;40368;49.350;8.152;2023-01-19T02:31:39;991.7;;;8.07;46.82
54459;BME280;40368;49.350;8.152;2023-01-19T02:33:39;991.7;;;8.12;45.8
54459;BME280;40368;49.350;8.152;2023-01-19T02:34:39;991.6;;;8.14;46.82
54459;BME280;40368;49.350;8.152;2023-01-19T02:35:39;991.6;;;8.17;46.81
54459;BME280;40368;49.350;8.152;2023-01-19T02:36:40;991.6;;;8.14;45.81
54459;BME280;40368;49.350;8.152;2023-01-19T02:37:39;991.6;;;8.13;46.04
54459;BME280;40368;49.350;8.152;2023-01-19T02:38:39;991.6;;;8.07;46.22
54459;BME280;40368;49.350;8.152;2023-01-19T02:39:40;991.6;;;8.02;46.05
54459;BME280;40368;49.350;8.152;2023-01-19T02:40:39;991.6;;;7.96;46.13
54459;BME280;40368;49.350;8.152;2023-01-19T02:41:39;991.6;;;7.95;46.72
54459;BME280;40368;49.350;8.152;2023-01-19T02:42:40;991.6;;;7.95;47.08
54459;BME280;40368;49.350;8.152;2023-01-19T02:43:39;991.7;;;7.96;46.49
54459;BME280;40368;49.350;8.152;2023-01-19T02:44:39;991.7;;;7.97;46.8
54459;BME280;40368;49.350;8.152;2023-01-19T02:45:39;991.7;;;7.95;46.56
54459;BME280;40368;49.350;8.152;2023-01-19T02:46:39;991.7;;;7.95;46.92
54459;BME280;40368;49.350;8.152;2023-01-19T02:47:39;991.7;;;7.96;46.81
54459;BME280;40368;49.350;8.152;2023-01-19T02:48:39;991.7;;;7.96;47.03
54459;BME280;40368;49.350;8.152;2023-01-19T02:49:39;991.6;;;7.97;47.2
54459;BME280;40368;49.350;8.152;2023-01-19T02:50:40;991.7;;;7.95;47.23
54459;BME280;40368;49.350;8.152;2023-01-19T02:51:39;991.7;;;7.94;47.21
54459;BME280;40368;49.350;8.152;2023-01-19T02:52:39;991.7;;;7.93;47.31
54459;BME280;40368;49.350;8.152;2023-01-19T02:53:43;991.7;;;7.92;46.7
54459;BME280;40368;49.350;8.152;2023-01-19T02:54:40;991.7;;;7.83;45.95
54459;BME280;40368;49.350;8.152;2023-01-19T02:55:39;991.7;;;7.72;47.03
54459;BME280;40368;49.350;8.152;2023-01-19T02:56:44;991.7;;;7.66;48.08
54459;BME280;40368;49.350;8.152;2023-01-19T02:57:41;991.7;;;7.6;47.53
54459;BME280;40368;49.350;8.152;2023-01-19T02:58:40;991.6;;;7.52;47.9
54459;BME280;40368;49.350;8.152;2023-01-19T02:59:42;991.6;;;7.42;48.39
54459;BME280;40368;49.350;8.152;2023-01-19T03:00:41;991.6;;;7.32;48.73
54459;BME280;40368;49.350;8.152;2023-01-19T03:01:46;991.6;;;7.35;48.93
54459;BME280;40368;49.350;8.152;2023-01-19T03:03:41;991.6;;;7.37;49.03
54459;BME280;40368;49.350;8.152;2023-01-19T03:04:42;991.5;;;7.37;49.27
54459;BME280;40368;49.350;8.152;2023-01-19T03:05:44;991.5;;;7.31;49.35
54459;BME280;40368;49.350;8.152;2023-01-19T03:06:41;991.5;;;7.31;49.22
54459;BME280;40368;49.350;8.152;2023-01-19T03:07:41;991.5;;;7.37;49.64
54459;BME280;40368;49.350;8.152;2023-01-19T03:08:41;991.5;;;7.43;49.5
54459;BME280;40368;49.350;8.152;2023-01-19T03:09:40;991.5;;;7.52;49.26
54459;BME280;40368;49.350;8.152;2023-01-19T03:11:40;991.5;;;7.56;48.51
54459;BME280;40368;49.350;8.152;2023-01-19T03:12:39;991.5;;;7.53;49.01
54459;BME280;40368;49.350;8.152;2023-01-19T03:13:41;991.5;;;7.53;49.75
54459;BME280;40368;49.350;8.152;2023-01-19T03:14:40;991.5;;;7.63;49.6
54459;BME280;40368;49.350;8.152;2023-01-19T03:15:39;991.5;;;7.72;49.6
54459;BME280;40368;49.350;8.152;2023-01-19T03:16:40;991.4;;;7.82;48.97
54459;BME280;40368;49.350;8.152;2023-01-19T03:17:39;991.4;;;7.89;48.92
54459;BME280;40368;49.350;8.152;2023-01-19T03:20:46;991.5;;;8.04;48.58
54459;BME280;40368;49.350;8.152;2023-01-19T03:21:46;991.5;;;8.07;48.18
54459;BME280;40368;49.350;8.152;2023-01-19T03:22:46;991.6;;;8.12;48.63
54459;BME280;40368;49.350;8.152;2023-01-19T03:23:39;991.6;;;8.14;48.39
54459;BME280;40368;49.350;8.152;2023-01-19T03:24:42;991.6;;;8.2;48.39
54459;BME280;40368;49.350;8.152;2023-01-19T03:25:40;991.6;;;8.21;48.43
54459;BME280;40368;49.350;8.152;2023-01-19T03:26:40;991.6;;;8.25;48
54459;BME280;40368;49.350;8.152;2023-01-19T03:27:38;991.6;;;8.27;48.09
54459;BME280;40368;49.350;8.152;2023-01-19T03:28:39;991.6;;;8.28;47.93
54459;BME280;40368;49.350;8.152;2023-01-19T03:29:39;991.7;;;8.3;47.96
54459;BME280;40368;49.350;8.152;2023-01-19T03:30:39;991.6;;;8.27;47.77
54459;BME280;40368;49.350;8.152;2023-01-19T03:32:40;991.6;;;8.21;47.58
54459;BME280;40368;49.350;8.152;2023-01-19T03:33:39;991.6;;;8.18;47.8
54459;BME280;40368;49.350;8.152;2023-01-19T03:34:39;991.5;;;8.18;48.42
54459;BME280;40368;49.350;8.152;2023-01-19T03:36:39;991.5;;;8.2;47.71
54459;BME280;40368;49.350;8.152;2023-01-19T03:37:39;991.5;;;8.21;48.18
54459;BME280;40368;49.350;8.152;2023-01-19T03:38:39;991.6;;;8.21;47.34
54459;BME280;40368;49.350;8.152;2023-01-19T03:39:39;991.6;;;8.2;47.71
54459;BME280;40368;49.350;8.152;2023-01-19T03:40:39;991.6;;;8.21;47.59
54459;BME280;40368;49.350;8.152;2023-01-19T03:41:39;991.6;;;8.28;47.63
54459;BME280;40368;49.350;8.152;2023-01-19T03:42:39;991.5;;;8.32;46.81
54459;BME280;40368;49.350;8.152;2023-01-19T03:43:39;991.6;;;8.31;46.96
54459;BME280;40368;49.350;8.152;2023-01-19T03:44:40;991.6;;;8.24;46.83
54459;BME280;40368;49.350;8.152;2023-01-19T03:45:39;991.6;;;8.17;47.16
54459;BME280;40368;49.350;8.152;2023-01-19T03:47:39;991.5;;;8.07;47.13
54459;BME280;40368;49.350;8.152;2023-01-19T03:48:39;991.5;;;8.06;47.61
54459;BME280;40368;49.350;8.152;2023-01-19T03:49:39;991.5;;;8.08;47.31
54459;BME280;40368;49.350;8.152;2023-01-19T03:51:39;991.5;;;8.02;47.21
54459;BME280;40368;49.350;8.152;2023-01-19T03:52:39;991.6;;;8.01;47.83
54459;BME280;40368;49.350;8.152;2023-01-19T03:53:39;991.6;;;8.05;47.69
54459;BME280;40368;49.350;8.152;2023-01-19T03:56:45;991.7;;;8.14;47.46
54459;BME280;40368;49.350;8.152;2023-01-19T03:57:46;991.6;;;8.14;47.12
54459;BME280;40368;49.350;8.152;2023-01-19T03:58:46;991.7;;;8.09;47.33
54459;BME280;40368;49.350;8.152;2023-01-19T03:59:39;991.7;;;8.09;47.59
54459;BME280;40368;49.350;8.152;2023-01-19T04:00:39;991.7;;;8.1;47.57
54459;BME280;40368;49.350;8.152;2023-01-19T04:01:39;991.7;;;8.12;47.69
54459;BME280;40368;49.350;8.152;2023-01-19T04:02:39;991.8;;;8.12;47.19
54459;BME280;40368;49.350;8.152;2023-01-19T04:04:39;991.8;;;8.03;47.72
54459;BME280;40368;49.350;8.152;2023-01-19T04:05:45;991.8;;;8.03;47.72
54459;BME280;40368;49.350;8.152;2023-01-19T04:06:45;991.9;;;8.04;47.57
54459;BME280;40368;49.350;8.152;2023-01-19T04:07:46;991.9;;;7.98;47.49
54459;BME280;40368;49.350;8.152;2023-01-19T04:08:39;991.8;;;7.98;47.76
54459;BME280;40368;49.350;8.152;2023-01-19T04:09:39;991.9;;;7.97;47.62
54459;BME280;40368;49.350;8.152;2023-01-19T04:10:39;991.9;;;7.98;47.51
54459;BME280;40368;49.350;8.152;2023-01-19T04:11:39;992;;;7.97;47.14
54459;BME280;40368;49.350;8.152;2023-01-19T04:12:39;992;;;7.95;47.75
54459;BME280;40368;49.350;8.152;2023-01-19T04:13:39;992;;;7.96;47.74
54459;BME280;40368;49.350;8.152;2023-01-19T04:14:39;992;;;7.94;47.87
54459;BME280;40368;49.350;8.152;2023-01-19T04:16:39;992;;;7.9;48.09
54459;BME280;40368;49.350;8.152;2023-01-19T04:17:39;992;;;7.89;47.79
54459;BME280;40368;49.350;8.152;2023-01-19T04:18:39;992.1;;;7.88;48.03
54459;BME280;40368;49.350;8.152;2023-01-19T04:19:39;992;;;7.91;48.19
54459;BME280;40368;49.350;8.152;2023-01-19T04:20:39;992;;;7.92;48.04
54459;BME280;40368;49.350;8.152;2023-01-19T04:21:38;992.1;;;7.95;48.24
54459;BME280;40368;49.350;8.152;2023-01-19T04:22:39;992.1;;;7.98;48.12
54459;BME280;40368;49.350;8.152;2023-01-19T04:23:39;992.1;;;7.99;47.89
54459;BME280;40368;49.350;8.152;2023-01-19T04:24:40;992.1;;;7.98;47.67
54459;BME280;40368;49.350;8.152;2023-01-19T04:25:39;992.1;;;7.93;47.66
54459;BME280;40368;49.350;8.152;2023-01-19T04:26:39;992;;;7.93;47.99
54459;BME280;40368;49.350;8.152;2023-01-19T04:28:39;992;;;7.91;47.4
54459;BME280;40368;49.350;8.152;2023-01-19T04:29:39;992.1;;;7.89;48.1
54459;BME280;40368;49.350;8.152;2023-01-19T04:30:39;992.1;;;7.92;48.14
54459;BME280;40368;49.350;8.152;2023-01-19T04:31:39;992.1;;;7.96;47.96
54459;BME280;40368;49.350;8.152;2023-01-19T04:32:39;992.1;;;8;47.88
54459;BME280;40368;49.350;8.152;2023-01-19T04:33:39;992;;;8.04;47.84
54459;BME280;40368;49.350;8.152;2023-01-19T04:34:39;992;;;8.04;47.21
54459;BME280;40368;49.350;8.152;2023-01-19T04:35:39;992;;;8.03;47.47
54459;BME280;40368;49.350;8.152;2023-01-19T04:36:38;992;;;8.02;47.85
54459;BME280;40368;49.350;8.152;2023-01-19T04:37:39;992;;;8.02;47.74
54459;BME280;40368;49.350;8.152;2023-01-19T04:40:38;992;;;7.93;48.07
54459;BME280;40368;49.350;8.152;2023-01-19T04:41:39;992;;;7.97;47.63
54459;BME280;40368;49.350;8.152;2023-01-19T04:43:39;992;;;8.07;48.31
54459;BME280;40368;49.350;8.152;2023-01-19T04:44:46;992;;;8.09;47.39
54459;BME280;40368;49.350;8.152;2023-01-19T04:45:45;992;;;8.02;47.15
54459;BME280;40368;49.350;8.152;2023-01-19T04:46:46;992;;;7.97;47.93
54459;BME280;40368;49.350;8.152;2023-01-19T04:47:38;992.1;;;7.98;47.9
54459;BME280;40368;49.350;8.152;2023-01-19T04:48:59;992.1;;;8.01;47.78
54459;BME280;40368;49.350;8.152;2023-01-19T04:49:52;992.1;;;8.01;47.09
54459;BME280;40368;49.350;8.152;2023-01-19T04:51:45;992;;;7.96;47.83
54459;BME280;40368;49.350;8.152;2023-01-19T04:52:45;992;;;7.98;47.92
54459;BME280;40368;49.350;8.152;2023-01-19T04:53:44;992;;;7.98;47.95
54459;BME280;40368;49.350;8.152;2023-01-19T04:55:39;992;;;8.01;47.82
54459;BME280;40368;49.350;8.152;2023-01-19T04:56:39;991.9;;;8.02;47.73
54459;BME280;40368;49.350;8.152;2023-01-19T04:57:39;992;;;7.99;47.95
54459;BME280;40368;49.350;8.152;2023-01-19T04:59:39;992;;;7.96;47.88
54459;BME280;40368;49.350;8.152;2023-01-19T05:00:38;992;;;7.95;47.87
54459;BME280;40368;49.350;8.152;2023-01-19T05:01:45;992;;;7.92;47.79
54459;BME280;40368;49.350;8.152;2023-01-19T05:02:46;992.1;;;7.86;47.6
54459;BME280;40368;49.350;8.152;2023-01-19T05:03:44;992.1;;;7.8;48.07
54459;BME280;40368;49.350;8.152;2023-01-19T05:04:39;992.1;;;7.77;48.02
54459;BME280;40368;49.350;8.152;2023-01-19T05:06:39;992;;;7.74;48.04
54459;BME280;40368;49.350;8.152;2023-01-19T05:07:39;992;;;7.73;48.02
54459;BME280;40368;49.350;8.152;2023-01-19T05:08:39;992;;;7.74;48.38
54459;BME280;40368;49.350;8.152;2023-01-19T05:10:39;992.1;;;7.75;47.9
54459;BME280;40368;49.350;8.152;2023-01-19T05:11:46;992.1;;;7.71;47.91
54459;BME280;40368;49.350;8.152;2023-01-19T05:12:45;992.1;;;7.67;48.1
54459;BME280;40368;49.350;8.152;2023-01-19T05:13:52;992.1;;;7.62;48.37
54459;BME280;40368;49.350;8.152;2023-01-19T05:14:45;992;;;7.56;48.37
54459;BME280;40368;49.350;8.152;2023-01-19T05:15:44;992;;;7.51;48.56
54459;BME280;40368;49.350;8.152;2023-01-19T05:16:52;992;;;7.48;48.43
54459;BME280;40368;49.350;8.152;2023-01-19T05:17:52;992.1;;;7.47;48.73
54459;BME280;40368;49.350;8.152;2023-01-19T05:19:52;992;;;7.45;48.81
54459;BME280;40368;49.350;8.152;2023-01-19T05:20:45;992.1;;;7.43;48.66
54459;BME280;40368;49.350;8.152;2023-01-19T05:21:52;992.1;;;7.43;49.04
54459;BME280;40368;49.350;8.152;2023-01-19T05:22:47;992.1;;;7.41;49.01
54459;BME280;40368;49.350;8.152;2023-01-19T05:24:39;992.1;;;7.37;49.26
54459;BME280;40368;49.350;8.152;2023-01-19T05:25:52;992;;;7.35;49.16
54459;BME280;40368;49.350;8.152;2023-01-19T05:26:52;992.1;;;7.35;49.39
54459;BME280;40368;49.350;8.152;2023-01-19T05:27:52;992.1;;;7.34;49.33
54459;BME280;40368;49.350;8.152;2023-01-19T05:28:52;992;;;7.33;49.23
54459;BME280;40368;49.350;8.152;2023-01-19T05:29:46;992.1;;;7.31;49.48
54459;BME280;40368;49.350;8.152;2023-01-19T05:30:52;992;;;7.3;49.49
54459;BME280;40368;49.350;8.152;2023-01-19T05:31:45;992;;;7.28;49.25
54459;BME280;40368;49.350;8.152;2023-01-19T05:32:39;992;;;7.24;49.33
54459;BME280;40368;49.350;8.152;2023-01-19T05:34:39;992;;;7.18;49.66
54459;BME280;40368;49.350;8.152;2023-01-19T05:35:39;992;;;7.16;49.65
54459;BME280;40368;49.350;8.152;2023-01-19T05:36:39;992;;;7.16;49.63
54459;BME280;40368;49.350;8.152;2023-01-19T05:38:39;992;;;7.18;49.65
54459;BME280;40368;49.350;8.152;2023-01-19T05:39:39;992;;;7.21;49.51
54459;BME280;40368;49.350;8.152;2023-01-19T05:40:55;992;;;7.2;49.37
54459;BME280;40368;49.350;8.152;2023-01-19T05:42:05;992;;;7.18;49.55
54459;BME280;40368;49.350;8.152;2023-01-19T05:42:52;992;;;7.19;49.75
54459;BME280;40368;49.350;8.152;2023-01-19T05:43:46;992.1;;;7.2;49.61
54459;BME280;40368;49.350;8.152;2023-01-19T05:44:46;992;;;7.19;49.56
54459;BME280;40368;49.350;8.152;2023-01-19T05:45:45;992;;;7.17;49.76
54459;BME280;40368;49.350;8.152;2023-01-19T05:46:45;992.1;;;7.15;49.88
54459;BME280;40368;49.350;8.152;2023-01-19T05:47:45;992;;;7.15;49.77
54459;BME280;40368;49.350;8.152;2023-01-19T05:48:46;992.1;;;7.14;49.54
54459;BME280;40368;49.350;8.152;2023-01-19T05:49:45;992.1;;;7.12;49.67
54459;BME280;40368;49.350;8.152;2023-01-19T05:51:52;992.1;;;7.11;49.66
54459;BME280;40368;49.350;8.152;2023-01-19T05:53:45;992.1;;;7.09;49.95
54459;BME280;40368;49.350;8.152;2023-01-19T05:54:59;992.1;;;7.11;49.78
54459;BME280;40368;49.350;8.152;2023-01-19T05:55:52;992.2;;;7.12;49.87
54459;BME280;40368;49.350;8.152;2023-01-19T05:56:38;992.2;;;7.13;49.81
54459;BME280;40368;49.350;8.152;2023-01-19T05:57:46;992.2;;;7.1;49.72
54459;BME280;40368;49.350;8.152;2023-01-19T05:58:45;992.2;;;7.07;49.91
54459;BME280;40368;49.350;8.152;2023-01-19T05:59:45;992.2;;;7.05;49.98
54459;BME280;40368;49.350;8.152;2023-01-19T06:00:46;992.2;;;7.05;49.93
54459;BME280;40368;49.350;8.152;2023-01-19T06:01:39;992.1;;;7.02;50.33
54459;BME280;40368;49.350;8.152;2023-01-19T06:03:39;992.2;;;7.02;50.61
54459;BME280;40368;49.350;8.152;2023-01-19T06:04:39;992.1;;;7.01;50.67
54459;BME280;40368;49.350;8.152;2023-01-19T06:05:39;992.1;;;7.01;50.68
54459;BME280;40368;49.350;8.152;2023-01-19T06:07:39;992.1;;;6.95;50.75
54459;BME280;40368;49.350;8.152;2023-01-19T06:08:45;992.1;;;6.95;50.84
54459;BME280;40368;49.350;8.152;2023-01-19T06:09:45;992.1;;;6.91;50.88
54459;BME280;40368;49.350;8.152;2023-01-19T06:10:45;992.2;;;6.87;50.83
54459;BME280;40368;49.350;8.152;2023-01-19T06:11:39;992.2;;;6.84;51.24
54459;BME280;40368;49.350;8.152;2023-01-19T06:12:52;992.2;;;6.85;51.28
54459;BME280;40368;49.350;8.152;2023-01-19T06:13:52;992.2;;;6.82;51.33
54459;BME280;40368;49.350;8.152;2023-01-19T06:14:52;992.2;;;6.82;51.49
54459;BME280;40368;49.350;8.152;2023-01-19T06:15:45;992.2;;;6.8;51.57
54459;BME280;40368;49.350;8.152;2023-01-19T06:16:45;992.2;;;6.81;51.52
54459;BME280;40368;49.350;8.152;2023-01-19T06:17:45;992.2;;;6.84;51.55
54459;BME280;40368;49.350;8.152;2023-01-19T06:18:45;992.3;;;6.84;51.48
54459;BME280;40368;49.350;8.152;2023-01-19T06:19:45;992.3;;;6.84;51.53
54459;BME280;40368;49.350;8.152;2023-01-19T06:20:46;992.3;;;6.85;51.47
54459;BME280;40368;49.350;8.152;2023-01-19T06:21:46;992.3;;;6.85;51.63
54459;BME280;40368;49.350;8.152;2023-01-19T06:22:46;992.3;;;6.85;51.55
54459;BME280;40368;49.350;8.152;2023-01-19T06:23:46;992.3;;;6.83;51.69
54459;BME280;40368;49.350;8.152;2023-01-19T06:24:44;992.3;;;6.82;51.83
54459;BME280;40368;49.350;8.152;2023-01-19T06:25:45;992.3;;;6.82;51.68